AirNav   Air Wisconsin Up To $57,000 Bonus
 
 1584 users online  

0MI1 Lawler Heliport
Oakland, Michigan, USA

GOING TO OAKLAND?


FAA INFORMATION EFFECTIVE 20 MAY 2021

Location

FAA Identifier: 0MI1
Lat/Long: 42-44-56.6500N 083-07-13.4700W
42-44.944167N 083-07.224500W
42.7490694,-83.1204083
(estimated)
Elevation: 940 ft. / 287 m (estimated)
From city: 4 miles SW of OAKLAND, MI
Time zone: UTC -4 (UTC -5 during Standard Time)
Zip code: 48306

Heliport Operations

Heliport use: Private use. Permission required prior to landing
Activation date: 06/2016
Control tower: no
ARTCC: CLEVELAND CENTER
FSS: LANSING FLIGHT SERVICE STATION
Attendance: 
Wind indicator: yes
Segmented circle: no

Heliport Communications

WX AWOS-3 at VLL (13 nm S): 119.475 (248-288-4649)
WX ASOS at PTK (14 nm W): 125.025 (248-886-8551)

Nearby radio navigation aids

VOR radial/distance  VOR name  Freq  Var
SVMr049/29.2SALEM VORTAC114.3003W
FNTr121/30.5FLINT VORTAC116.9006W
DXOr025/34.0DETROIT VOR/DME113.4006W

 
NDB name  Hdg/Dist  Freq  Var  ID
GROSSE ILE009/38.941907WRYS .-. -.-- ...

Heliport Services

Runway Information

Helipad H1

Dimensions: 40 x 24 ft. / 12 x 7 m
Surface: concrete
Runway edge lights: FLD
Traffic pattern: leftleft

Heliport Ownership and Management from official FAA records

Ownership: Privately-owned
Owner: DAVID M. LAWLER
885 E. GUNN
ROCHESTER, MI 48306
Phone (586) 899-4979
Manager: DAVID M. LAWLER
885 E. GUNN
ROCHESTER, MI 48306
Phone (586) 899-4979

Heliport Operational Statistics

Aircraft based on the field: 1
Helicopters: 1
    

Additional Remarks

FOR CD CTC CLEVELAND ARTCC AT 440-774-0490.

Instrument Procedures

There are no published instrument procedures at 0MI1.

Some nearby airports with instrument procedures:

D98 - Romeo State Airport (7 nm NE)
57D - Ray Community Airport (10 nm E)
KVLL - Oakland/Troy Airport (13 nm S)
KPTK - Oakland County International Airport (14 nm W)
KMTC - Selfridge Air National Guard Base (15 nm SE)
 
Loc | Ops | Rwys | IFR | FBO | Links
Com | Nav | Svcs | Stats | Notes
Aerial photo
No photo
 
Airport distance calculator
Flying to Lawler Heliport? Find the distance to fly.

From to 0MI1

Sunrise and sunset
Times for 14-Jun-2021
 Local
(UTC-4)
 Zulu
(UTC)
Morning civil twilight05:2009:20
Sunrise05:5509:55
Sunset21:1101:11
Evening civil twilight21:4601:46

Current date and time
Zulu (UTC)  14-Jun-2021 15:01:15
Local (UTC-4)  14-Jun-2021 11:01:15
 
METAR
KVLL 
13nm S 
141455Z AUTO 31009KT 270V330 10SM BKN075 BKN095 20/16 A2989 RMK AO2 T02040155
KPTK 
14nm W 
141453Z 32011KT 10SM FEW033 FEW075 SCT090 19/14 A2986 RMK AO2 SLP107 60003 T01940139 55005
KMTC 
16nm SE 
141456Z VRB03KT 10SM FEW015 FEW045 BKN080 20/20 A2985 RMK AO2A SLP111 60006 T01980198 55010
KD95 
20nm N 
141455Z AUTO 31005KT 10SM SCT022 SCT029 20/14 A2987 RMK AO2 60001 T01990142
KDET 
21nm S 
141453Z VRB03KT 10SM FEW080 22/16 A2987 RMK AO2 SLP109 60001 T02170156 55019
TAF
KPTK 
14nm W 
141132Z 1412/1512 35014KT P6SM OVC070 TEMPO 1412/1413 5SM TSRA OVC050CB FM141500 02005KT P6SM BKN050 TEMPO 1418/1420 6SM -SHRA FM142000 33007KT P6SM BKN050 TEMPO 1420/1424 5SM TSRA OVC040CB FM150100 33005KT P6SM SCT100
KMTC 
16nm SE 
141402Z 1414/1515 35009KT 9999 BKN006 OVC090 QNH2983INS BECMG 1414/1416 34009KT 9999 SCT020 BKN050 QNH2981INS BECMG 1422/1423 34012G18KT 9000 -SHRA SCT030 BKN055 QNH2983INS TEMPO 1500/1502 34015G25KT 6000 -TSRA BKN030CB BECMG 1502/1503 VRB06KT 9999 NSW SCT030 BKN055 OVC085 510043 QNH2985INS BECMG 1508/1509 VRB06KT 8000 BR SCT020 BKN030 BKN040 QNH2991INS BECMG 1513/1514 35010G15KT 9999 NSW FEW020 BKN030 OVC040 510053 QNH2997INS TX22/1421Z TN14/1508Z
NOTAMs
Click for the latest NOTAMs
NOTAMs are issued by the DoD/FAA and will open in a separate window not controlled by AirNav.

 

 
 

Would you like to see your business listed on this page?

 If your business provides an interesting product or service to pilots, flight crews, aircraft, or users of the Lawler Heliport, you should consider listing it here.  To start the listing process, click on the button below
 
Add a business
 

Other Pages about Lawler Heliport

Update a link
 
Copyright © AirNav, LLC. All rights reserved. Privacy Policy  Contact